createdAt,value
2022-11-05T00:01:32.182Z,8.60
2022-11-05T00:04:18.340Z,7.30
2022-11-05T00:07:05.829Z,9.55
2022-11-05T00:09:33.557Z,8.23
2022-11-05T00:12:34.436Z,6.55
2022-11-05T00:15:20.229Z,8.57
2022-11-05T00:17:47.244Z,5.05
2022-11-05T00:20:21.084Z,4.68
2022-11-05T00:23:09.459Z,3.55
2022-11-05T00:25:41.314Z,2.83
2022-11-05T00:28:08.591Z,3.08
2022-11-05T00:30:38.719Z,2.95
2022-11-05T00:33:07.010Z,3.65
2022-11-05T00:35:34.316Z,3.50
2022-11-05T00:38:01.612Z,3.53
2022-11-05T00:40:29.443Z,4.72
2022-11-05T00:43:15.149Z,2.38
2022-11-05T00:45:53.875Z,3.42
2022-11-05T00:48:42.083Z,2.88
2022-11-05T00:51:12.194Z,3.47
2022-11-05T00:53:39.578Z,3.90
2022-11-05T00:56:07.731Z,3.80
2022-11-05T00:58:36.451Z,2.85
2022-11-05T01:01:10.801Z,2.70
2022-11-05T01:03:39.801Z,2.75
2022-11-05T01:06:11.055Z,2.20
2022-11-05T01:08:39.161Z,2.53
2022-11-05T01:11:33.521Z,2.60
2022-11-05T01:14:11.843Z,2.70
2022-11-05T01:19:10.860Z,2.22
2022-11-05T01:21:39.416Z,2.40
2022-11-05T01:24:07.028Z,2.55
2022-11-05T01:26:35.294Z,2.35
2022-11-05T01:29:07.155Z,2.25
2022-11-05T01:31:34.516Z,1.98
2022-11-05T01:34:02.998Z,2.22
2022-11-05T01:36:33.347Z,2.47
2022-11-05T01:41:31.161Z,2.03
2022-11-05T01:44:00.136Z,2.42
2022-11-05T01:46:42.650Z,2.50
2022-11-05T01:49:27.437Z,2.72
2022-11-05T01:51:57.484Z,2.53
2022-11-05T01:54:29.996Z,2.70
2022-11-05T01:57:09.766Z,2.35
2022-11-05T01:59:43.975Z,2.13
2022-11-05T02:02:11.744Z,2.17
2022-11-05T02:04:50.089Z,1.92
2022-11-05T02:07:23.465Z,2.15
2022-11-05T02:10:16.336Z,1.98
2022-11-05T02:12:46.738Z,2.03
2022-11-05T02:15:18.379Z,2.00
2022-11-05T02:18:20.426Z,2.08
2022-11-05T02:21:20.590Z,2.55
2022-11-05T02:23:54.871Z,2.13
2022-11-05T02:26:45.482Z,1.73
2022-11-05T02:29:18.706Z,2.03
2022-11-05T02:32:24.801Z,2.17
2022-11-05T02:35:07.365Z,2.30
2022-11-05T02:37:41.533Z,2.58
2022-11-05T02:40:41.182Z,2.45
2022-11-05T02:43:27.023Z,1.75
2022-11-05T02:46:15.204Z,2.17
2022-11-05T02:48:42.504Z,2.08
2022-11-05T02:51:33.271Z,1.80
2022-11-05T02:54:19.456Z,1.90
2022-11-05T02:56:55.749Z,2.03
2022-11-05T02:59:23.048Z,2.20
2022-11-05T03:01:52.688Z,1.77
2022-11-05T03:04:23.004Z,1.80
2022-11-05T03:06:56.663Z,2.13
2022-11-05T03:09:48.490Z,1.52
2022-11-05T03:12:50.972Z,1.80
2022-11-05T03:15:54.363Z,1.75
2022-11-05T03:18:27.131Z,2.13
2022-11-05T03:21:09.488Z,2.30
2022-11-05T03:23:57.465Z,1.63
2022-11-05T03:26:44.754Z,1.67
2022-11-05T03:29:22.215Z,1.40
2022-11-05T03:31:54.152Z,2.10
2022-11-05T03:34:26.703Z,1.48
2022-11-05T03:36:56.439Z,2.08
2022-11-05T03:39:30.853Z,2.47
2022-11-05T03:42:00.872Z,2.35
2022-11-05T03:44:33.094Z,2.35
2022-11-05T03:47:11.529Z,1.90
2022-11-05T03:49:55.109Z,1.88
2022-11-05T03:52:28.055Z,1.92
2022-11-05T03:54:55.714Z,1.90
2022-11-05T03:57:40.481Z,2.05
2022-11-05T04:00:14.835Z,2.38
2022-11-05T04:02:42.407Z,1.95
2022-11-05T04:05:11.121Z,2.25
2022-11-05T04:07:59.437Z,2.25
2022-11-05T04:10:51.396Z,2.03
2022-11-05T04:13:26.912Z,1.58
2022-11-05T04:16:15.861Z,1.67
2022-11-05T04:18:52.291Z,1.58
2022-11-05T04:21:38.057Z,1.30
2022-11-05T04:24:08.439Z,1.48
2022-11-05T04:26:43.794Z,1.73
2022-11-05T04:29:29.881Z,1.95
2022-11-05T04:31:57.034Z,1.48
2022-11-05T04:34:26.928Z,1.77
2022-11-05T04:36:54.119Z,1.92
2022-11-05T04:39:21.706Z,1.85
2022-11-05T04:41:53.042Z,1.83
2022-11-05T04:44:22.517Z,2.10
2022-11-05T04:46:50.469Z,1.67
2022-11-05T04:49:17.606Z,1.65
2022-11-05T04:51:50.432Z,1.77
2022-11-05T04:54:18.033Z,2.17
2022-11-05T04:56:45.384Z,1.95
2022-11-05T04:59:12.369Z,1.80
2022-11-05T05:01:42.523Z,1.45
2022-11-05T05:04:12.214Z,1.42
2022-11-05T05:06:39.559Z,1.58
2022-11-05T05:09:06.764Z,1.83
2022-11-05T05:11:34.170Z,2.08
2022-11-05T05:14:01.259Z,2.05
2022-11-05T05:16:38.831Z,1.52
2022-11-05T05:19:06.109Z,2.03
2022-11-05T05:21:41.307Z,1.95
2022-11-05T05:24:13.945Z,2.05
2022-11-05T05:26:49.471Z,1.63
2022-11-05T05:29:18.009Z,1.80
2022-11-05T05:31:47.618Z,1.80
2022-11-05T05:34:17.330Z,1.42
2022-11-05T05:36:44.544Z,1.42
2022-11-05T05:39:11.666Z,1.63
2022-11-05T05:41:38.956Z,1.08
2022-11-05T05:44:06.994Z,1.40
2022-11-05T05:46:34.759Z,1.35
2022-11-05T05:49:07.984Z,0.95
2022-11-05T05:51:41.685Z,1.40
2022-11-05T05:54:10.259Z,1.52
2022-11-05T05:56:39.637Z,1.45
2022-11-05T06:01:35.319Z,1.65
2022-11-05T06:04:03.532Z,1.52
2022-11-05T06:06:31.167Z,1.77
2022-11-05T06:09:04.482Z,1.63
2022-11-05T06:11:31.822Z,2.05
2022-11-05T06:13:59.082Z,1.70
2022-11-05T06:16:26.517Z,1.48
2022-11-05T06:18:53.715Z,1.70
2022-11-05T06:21:21.248Z,2.95
2022-11-05T06:23:51.334Z,2.00
2022-11-05T06:26:19.441Z,2.88
2022-11-05T06:28:49.636Z,3.08
2022-11-05T06:31:19.218Z,2.20
2022-11-05T06:33:47.396Z,1.15
2022-11-05T06:36:16.463Z,1.02
2022-11-05T06:38:44.263Z,1.58
2022-11-05T06:41:11.654Z,1.25
2022-11-05T06:43:38.892Z,1.20
2022-11-05T06:46:08.252Z,0.93
2022-11-05T06:48:35.521Z,1.83
2022-11-05T06:51:06.505Z,1.77
2022-11-05T06:53:36.767Z,1.70
2022-11-05T06:56:09.967Z,1.58
2022-11-05T06:58:37.678Z,1.52
2022-11-05T07:01:10.827Z,1.17
2022-11-05T07:03:45.281Z,1.08
2022-11-05T07:06:12.737Z,1.23
2022-11-05T07:08:42.966Z,1.20
2022-11-05T07:11:16.156Z,1.23
2022-11-05T07:13:43.446Z,1.27
2022-11-05T07:16:11.486Z,1.15
2022-11-05T07:18:38.893Z,1.42
2022-11-05T07:21:06.617Z,1.50
2022-11-05T07:23:34.002Z,1.08
2022-11-05T07:26:09.066Z,1.00
2022-11-05T07:28:36.287Z,0.68
2022-11-05T07:31:06.301Z,0.98
2022-11-05T07:33:36.485Z,0.85
2022-11-05T07:36:07.593Z,0.63
2022-11-05T07:38:37.489Z,0.80
2022-11-05T07:41:14.336Z,0.85
2022-11-05T07:43:41.552Z,1.13
2022-11-05T07:46:14.016Z,0.88
2022-11-05T07:51:11.496Z,0.88
2022-11-05T07:56:14.039Z,0.85
2022-11-05T07:58:41.350Z,1.75
2022-11-05T08:01:10.398Z,1.85
2022-11-05T08:03:41.140Z,2.40
2022-11-05T08:06:09.013Z,1.73
2022-11-05T08:08:36.431Z,1.45
2022-11-05T08:11:09.665Z,1.35
2022-11-05T08:13:37.683Z,1.27
2022-11-05T08:16:05.759Z,1.40
2022-11-05T08:18:33.307Z,1.17
2022-11-05T08:21:10.923Z,1.30
2022-11-05T08:23:39.299Z,1.33
2022-11-05T08:26:06.727Z,1.15
2022-11-05T08:28:42.028Z,1.27
2022-11-05T08:31:16.891Z,1.23
2022-11-05T08:33:44.241Z,1.10
2022-11-05T08:36:11.795Z,1.02
2022-11-05T08:38:39.376Z,0.75
2022-11-05T08:41:16.417Z,0.90
2022-11-05T08:44:10.935Z,1.20
2022-11-05T08:46:41.551Z,1.02
2022-11-05T08:49:09.156Z,1.10
2022-11-05T08:51:36.468Z,1.13
2022-11-05T08:54:07.127Z,1.55
2022-11-05T08:56:36.894Z,2.63
2022-11-05T08:59:06.673Z,1.90
2022-11-05T09:01:41.094Z,2.10
2022-11-05T09:04:08.955Z,2.20
2022-11-05T09:06:41.338Z,2.10
2022-11-05T09:09:08.475Z,2.47
2022-11-05T09:12:05.230Z,2.20
2022-11-05T09:14:23.189Z,0.95
2022-11-05T09:16:52.363Z,1.40
2022-11-05T09:19:19.673Z,1.30
2022-11-05T09:21:46.985Z,2.97
2022-11-05T09:24:16.291Z,0.68
2022-11-05T09:26:43.544Z,0.85
2022-11-05T09:29:14.367Z,1.13
2022-11-05T09:31:42.181Z,1.02
2022-11-05T09:34:13.398Z,1.00
2022-11-05T09:36:43.159Z,1.30
2022-11-05T09:39:11.769Z,1.20
2022-11-05T09:41:46.505Z,1.20
2022-11-05T09:44:22.367Z,0.82
2022-11-05T09:47:01.293Z,0.98
2022-11-05T09:49:41.661Z,1.13
2022-11-05T09:52:27.492Z,1.38
2022-11-05T09:54:55.682Z,3.28
2022-11-05T09:57:35.993Z,1.80
2022-11-05T10:00:18.943Z,3.05
2022-11-05T10:03:04.089Z,1.27
2022-11-05T10:05:46.050Z,2.20
2022-11-05T10:08:22.449Z,1.60
2022-11-05T10:11:10.612Z,1.38
2022-11-05T10:13:43.803Z,1.80
2022-11-05T10:16:48.105Z,2.50
2022-11-05T10:19:47.272Z,1.45
2022-11-05T10:22:24.691Z,2.05
2022-11-05T10:24:53.825Z,1.73
2022-11-05T10:27:34.319Z,1.88
2022-11-05T10:30:01.829Z,2.38
2022-11-05T10:32:32.559Z,2.25
2022-11-05T10:35:04.689Z,1.73
2022-11-05T10:37:41.664Z,1.60
2022-11-05T10:40:35.239Z,1.33
2022-11-05T10:43:25.018Z,2.22
2022-11-05T10:46:14.809Z,1.20
2022-11-05T10:48:43.977Z,1.40
2022-11-05T10:51:14.562Z,1.40
2022-11-05T10:54:04.688Z,2.20
2022-11-05T10:56:35.187Z,3.50
2022-11-05T10:59:11.851Z,2.28
2022-11-05T11:01:46.578Z,2.30
2022-11-05T11:04:37.872Z,2.45
2022-11-05T11:07:29.917Z,3.63
2022-11-05T11:10:03.270Z,3.42
2022-11-05T11:12:40.894Z,3.20
2022-11-05T11:15:28.539Z,1.73
2022-11-05T11:17:56.620Z,0.50
2022-11-05T11:23:18.484Z,1.45
2022-11-05T11:26:07.597Z,0.90
2022-11-05T11:28:49.047Z,1.38
2022-11-05T11:31:25.508Z,2.53
2022-11-05T11:36:46.431Z,1.17
2022-11-05T11:39:24.534Z,1.05
2022-11-05T11:41:56.424Z,1.55
2022-11-05T11:44:32.999Z,1.95
2022-11-05T11:47:16.145Z,1.40
2022-11-05T11:50:03.918Z,1.35
2022-11-05T11:52:37.694Z,0.75
2022-11-05T11:55:21.889Z,1.33
2022-11-05T11:57:52.732Z,0.90
2022-11-05T12:00:33.401Z,1.52
2022-11-05T12:03:28.481Z,0.88
2022-11-05T12:06:30.438Z,0.20
2022-11-05T12:09:19.651Z,0.38
2022-11-05T12:11:58.893Z,1.30
2022-11-05T12:14:49.868Z,1.02
2022-11-05T12:18:06.005Z,0.63
2022-11-05T12:20:55.379Z,1.13
2022-11-05T12:23:45.910Z,0.60
2022-11-05T12:26:40.772Z,1.00
2022-11-05T12:29:24.490Z,0.80
2022-11-05T12:32:06.375Z,0.93
2022-11-05T12:34:57.026Z,1.30
2022-11-05T12:37:46.125Z,1.38
2022-11-05T12:40:56.646Z,1.10
2022-11-05T12:43:34.957Z,1.00
2022-11-05T12:46:11.377Z,2.47
2022-11-05T12:48:51.522Z,1.10
2022-11-05T12:51:52.243Z,0.70
2022-11-05T12:54:50.935Z,1.63
2022-11-05T12:57:31.140Z,0.55
2022-11-05T13:00:23.665Z,0.57
2022-11-05T13:03:22.524Z,1.02
2022-11-05T13:06:06.027Z,1.08
2022-11-05T13:09:03.085Z,1.00
2022-11-05T13:11:40.383Z,1.13
2022-11-05T13:14:38.027Z,1.08
2022-11-05T13:17:19.721Z,0.38
2022-11-05T13:19:50.935Z,0.30
2022-11-05T13:23:17.041Z,0.75
2022-11-05T13:25:58.651Z,0.95
2022-11-05T13:28:41.439Z,0.60
2022-11-05T13:31:28.832Z,1.15
2022-11-05T13:34:03.380Z,0.60
2022-11-05T13:37:17.774Z,0.80
2022-11-05T13:40:00.132Z,0.68
2022-11-05T13:42:48.197Z,0.63
2022-11-05T13:45:45.636Z,1.00
2022-11-05T13:48:50.902Z,1.13
2022-11-05T13:51:45.344Z,1.00
2022-11-05T13:54:41.555Z,0.35
2022-11-05T13:57:33.088Z,0.13
2022-11-05T14:00:26.679Z,0.85
2022-11-05T14:03:03.698Z,1.10
2022-11-05T14:05:39.436Z,1.15
2022-11-05T14:08:22.015Z,0.90
2022-11-05T14:11:12.300Z,0.40
2022-11-05T14:13:45.851Z,0.80
2022-11-05T14:16:22.349Z,0.28
2022-11-05T14:21:54.618Z,0.68
2022-11-05T14:24:21.790Z,0.70
2022-11-05T14:27:17.823Z,1.20
2022-11-05T14:29:49.745Z,0.85
2022-11-05T14:32:28.165Z,1.05
2022-11-05T14:35:23.644Z,0.93
2022-11-05T14:37:55.043Z,0.82
2022-11-05T14:40:43.612Z,0.60
2022-11-05T14:43:24.528Z,0.73
2022-11-05T14:46:11.829Z,1.27
2022-11-05T14:48:51.644Z,0.52
2022-11-05T14:51:26.755Z,0.38
2022-11-05T14:54:45.020Z,0.32
2022-11-05T14:57:19.636Z,0.85
2022-11-05T14:59:58.616Z,0.52
2022-11-05T15:02:39.377Z,0.98
2022-11-05T15:05:33.538Z,0.32
2022-11-05T15:08:31.362Z,0.43
2022-11-05T15:11:09.669Z,0.40
2022-11-05T15:14:05.133Z,0.45
2022-11-05T15:16:45.014Z,0.43
2022-11-05T15:19:21.330Z,0.65
2022-11-05T15:21:50.091Z,1.40
2022-11-05T15:24:19.611Z,1.10
2022-11-05T15:26:57.805Z,0.50
2022-11-05T15:29:29.019Z,1.00
2022-11-05T15:31:57.518Z,1.23
2022-11-05T15:34:25.048Z,0.35
2022-11-05T15:37:20.596Z,1.00
2022-11-05T15:39:56.840Z,1.40
2022-11-05T15:42:30.027Z,1.20
2022-11-05T15:45:00.154Z,1.00
2022-11-05T15:47:34.262Z,1.50
2022-11-05T15:50:14.040Z,1.30
2022-11-05T15:52:53.337Z,1.02
2022-11-05T15:55:25.272Z,1.30
2022-11-05T15:58:08.056Z,1.75
2022-11-05T16:03:14.781Z,1.27
2022-11-05T16:05:51.954Z,1.13
2022-11-05T16:08:28.077Z,0.73
2022-11-05T16:11:11.295Z,1.25
2022-11-05T16:13:43.689Z,1.38
2022-11-05T16:16:13.898Z,1.05
2022-11-05T16:18:42.459Z,1.15
2022-11-05T16:21:23.866Z,1.33
2022-11-05T16:23:58.370Z,1.35
2022-11-05T16:27:01.949Z,1.50
2022-11-05T16:29:28.518Z,1.42
2022-11-05T16:31:58.013Z,2.13
2022-11-05T16:34:29.343Z,1.52
2022-11-05T16:36:58.184Z,1.20
2022-11-05T16:39:26.190Z,0.65
2022-11-05T16:41:56.095Z,1.10
2022-11-05T16:44:23.504Z,1.40
2022-11-05T16:46:53.092Z,1.25
2022-11-05T16:49:20.822Z,1.40
2022-11-05T16:51:52.334Z,1.23
2022-11-05T16:54:19.445Z,1.65
2022-11-05T16:56:47.555Z,1.00
2022-11-05T16:59:15.305Z,1.63
2022-11-05T17:01:50.354Z,1.23
2022-11-05T17:04:20.591Z,0.82
2022-11-05T17:06:55.845Z,1.33
2022-11-05T17:09:24.288Z,1.05
2022-11-05T17:11:53.951Z,1.80
2022-11-05T17:14:23.210Z,0.50
2022-11-05T17:16:56.098Z,1.30
2022-11-05T17:19:25.860Z,1.42
2022-11-05T17:21:57.357Z,1.30
2022-11-05T17:24:32.160Z,1.90
2022-11-05T17:26:59.260Z,1.45
2022-11-05T17:29:29.381Z,0.93
2022-11-05T17:32:07.321Z,1.45
2022-11-05T17:34:34.530Z,1.63
2022-11-05T17:37:18.426Z,1.58
2022-11-05T17:39:50.574Z,1.60
2022-11-05T17:42:32.845Z,1.42
2022-11-05T17:45:03.998Z,1.73
2022-11-05T17:47:34.741Z,1.42
2022-11-05T17:50:04.349Z,0.85
2022-11-05T17:52:40.289Z,2.08
2022-11-05T17:55:30.577Z,1.90
2022-11-05T17:57:58.275Z,4.53
2022-11-05T18:00:29.751Z,2.17
2022-11-05T18:03:00.606Z,1.67
2022-11-05T18:05:28.319Z,1.90
2022-11-05T18:08:11.483Z,0.77
2022-11-05T18:11:16.122Z,7.15
2022-11-05T18:16:15.101Z,0.90
2022-11-05T18:18:42.340Z,0.90
2022-11-05T18:21:44.281Z,1.38
2022-11-05T18:24:08.432Z,1.67
2022-11-05T18:26:40.973Z,1.13
2022-11-05T18:29:08.442Z,2.60
2022-11-05T18:31:38.835Z,1.77
2022-11-05T18:34:07.716Z,1.52
2022-11-05T18:36:53.495Z,0.65
2022-11-05T18:39:28.629Z,0.82
2022-11-05T18:41:56.355Z,1.10
2022-11-05T18:44:26.970Z,1.48
2022-11-05T18:46:58.378Z,2.35
2022-11-05T18:49:33.505Z,0.98
2022-11-05T18:52:04.521Z,1.73
2022-11-05T18:54:35.004Z,1.85
2022-11-05T18:57:07.721Z,1.35
2022-11-05T18:59:38.657Z,1.63
2022-11-05T19:02:14.221Z,2.35
2022-11-05T19:05:07.045Z,2.47
2022-11-05T19:07:39.276Z,2.50
2022-11-05T19:10:13.579Z,0.68
2022-11-05T19:12:43.034Z,1.35
2022-11-05T19:15:26.515Z,1.70
2022-11-05T19:18:03.494Z,1.98
2022-11-05T19:20:44.701Z,0.68
2022-11-05T19:23:12.163Z,1.55
2022-11-05T19:25:47.107Z,1.38
2022-11-05T19:28:21.130Z,1.50
2022-11-05T19:30:55.387Z,0.70
2022-11-05T19:33:22.880Z,1.85
2022-11-05T19:36:11.420Z,1.58
2022-11-05T19:38:41.455Z,1.35
2022-11-05T19:41:16.554Z,1.40
2022-11-05T19:44:04.649Z,1.27
2022-11-05T19:46:41.933Z,0.50
2022-11-05T19:49:13.029Z,0.75
2022-11-05T19:51:49.496Z,1.63
2022-11-05T19:54:22.458Z,0.65
2022-11-05T19:56:55.860Z,0.77
2022-11-05T19:59:32.064Z,0.55
2022-11-05T20:02:29.572Z,1.20
2022-11-05T20:04:59.471Z,0.80
2022-11-05T20:07:27.527Z,1.45
2022-11-05T20:10:00.115Z,0.60
2022-11-05T20:12:41.513Z,1.30
2022-11-05T20:15:11.733Z,2.58
2022-11-05T20:17:44.108Z,1.38
2022-11-05T20:20:11.979Z,2.83
2022-11-05T20:22:44.360Z,0.65
2022-11-05T20:25:26.001Z,1.25
2022-11-05T20:27:54.005Z,0.75
2022-11-05T20:30:29.427Z,1.20
2022-11-05T20:32:58.307Z,2.08
2022-11-05T20:35:26.855Z,1.85
2022-11-05T20:37:57.018Z,1.30
2022-11-05T20:40:27.614Z,0.63
2022-11-05T20:43:06.484Z,0.57
2022-11-05T20:45:35.222Z,1.25
2022-11-05T20:48:06.169Z,1.23
2022-11-05T20:50:56.196Z,1.40
2022-11-05T20:53:36.001Z,1.30
2022-11-05T20:56:21.921Z,1.25
2022-11-05T20:58:53.645Z,1.25
2022-11-05T21:01:37.275Z,0.80
2022-11-05T21:04:07.788Z,0.88
2022-11-05T21:06:37.559Z,0.77
2022-11-05T21:09:07.117Z,0.63
2022-11-05T21:11:55.802Z,0.68
2022-11-05T21:14:27.066Z,1.13
2022-11-05T21:17:18.641Z,0.95
2022-11-05T21:19:48.803Z,1.83
2022-11-05T21:22:20.855Z,2.10
2022-11-05T21:24:51.933Z,2.30
2022-11-05T21:27:22.826Z,1.60
2022-11-05T21:29:50.391Z,1.33
2022-11-05T21:32:24.917Z,0.80
2022-11-05T21:34:52.827Z,0.68
2022-11-05T21:37:22.163Z,0.77
2022-11-05T21:39:57.889Z,1.48
2022-11-05T21:42:25.676Z,1.08
2022-11-05T21:45:00.008Z,1.08
2022-11-05T21:47:29.538Z,1.45
2022-11-05T21:50:16.101Z,1.27
2022-11-05T21:53:09.642Z,1.17
2022-11-05T21:56:00.091Z,0.85
2022-11-05T21:58:46.211Z,1.08
2022-11-05T22:01:13.868Z,0.75
2022-11-05T22:03:41.134Z,1.40
2022-11-05T22:06:11.045Z,0.55
2022-11-05T22:08:38.259Z,1.23
2022-11-05T22:11:06.382Z,0.85
2022-11-05T22:13:39.826Z,0.25
2022-11-05T22:16:12.697Z,1.38
2022-11-05T22:18:40.169Z,0.80
2022-11-05T22:21:21.477Z,0.93
2022-11-05T22:23:48.776Z,0.65
2022-11-05T22:26:16.721Z,1.05
2022-11-05T22:28:43.892Z,1.73
2022-11-05T22:31:15.763Z,1.83
2022-11-05T22:33:43.658Z,2.22
2022-11-05T22:36:18.847Z,1.27
2022-11-05T22:38:47.663Z,1.75
2022-11-05T22:41:25.727Z,0.75
2022-11-05T22:43:52.946Z,1.92
2022-11-05T22:46:25.144Z,0.82
2022-11-05T22:48:56.573Z,1.88
2022-11-05T22:51:27.086Z,0.80
2022-11-05T22:53:55.256Z,0.93
2022-11-05T22:56:30.023Z,0.60
2022-11-05T22:58:58.226Z,1.45
2022-11-05T23:01:36.716Z,0.77
2022-11-05T23:04:04.470Z,0.88
2022-11-05T23:06:51.933Z,0.93
2022-11-05T23:09:52.736Z,1.65
2022-11-05T23:12:28.429Z,1.38
2022-11-05T23:14:58.154Z,0.47
2022-11-05T23:17:50.533Z,1.23
2022-11-05T23:20:44.017Z,1.20
2022-11-05T23:23:41.361Z,1.02
2022-11-05T23:26:35.922Z,1.48
2022-11-05T23:29:04.404Z,0.95
2022-11-05T23:31:52.523Z,0.98
2022-11-05T23:34:19.920Z,0.80
2022-11-05T23:37:06.671Z,1.63
2022-11-05T23:39:42.828Z,1.20
2022-11-05T23:42:34.235Z,1.50
2022-11-05T23:45:20.584Z,0.32
2022-11-05T23:48:14.455Z,0.63
2022-11-05T23:50:47.828Z,1.05
2022-11-05T23:53:16.042Z,0.60
2022-11-05T23:55:43.650Z,0.80
2022-11-05T23:58:18.439Z,0.75
